sensor_id;sensor_type;location;lat;lon;timestamp;pressure;altitude;pressure_sealevel;temperature;humidity
42771;BME280;28426;42.872;25.314;2023-02-11T00:01:08;98820.34;;;-11.89;83.13
42771;BME280;28426;42.872;25.314;2023-02-11T00:03:39;98821.19;;;-11.81;82.38
42771;BME280;28426;42.872;25.314;2023-02-11T00:06:12;98823.72;;;-11.75;82.08
42771;BME280;28426;42.872;25.314;2023-02-11T00:08:43;98816.00;;;-11.73;81.56
42771;BME280;28426;42.872;25.314;2023-02-11T00:11:15;98828.88;;;-11.65;80.83
42771;BME280;28426;42.872;25.314;2023-02-11T00:13:46;98819.44;;;-11.63;80.56
42771;BME280;28426;42.872;25.314;2023-02-11T00:16:18;98826.28;;;-11.61;80.23
42771;BME280;28426;42.872;25.314;2023-02-11T00:18:49;98836.59;;;-11.59;79.86
42771;BME280;28426;42.872;25.314;2023-02-11T00:21:24;98821.97;;;-11.60;79.78
42771;BME280;28426;42.872;25.314;2023-02-11T00:23:56;98820.28;;;-11.58;79.18
42771;BME280;28426;42.872;25.314;2023-02-11T00:26:30;98822.84;;;-11.60;79.08
42771;BME280;28426;42.872;25.314;2023-02-11T00:29:02;98821.13;;;-11.59;78.73
42771;BME280;28426;42.872;25.314;2023-02-11T00:31:33;98816.00;;;-11.65;78.37
42771;BME280;28426;42.872;25.314;2023-02-11T00:34:04;98822.00;;;-11.70;80.82
42771;BME280;28426;42.872;25.314;2023-02-11T00:36:38;98818.59;;;-11.76;78.85
42771;BME280;28426;42.872;25.314;2023-02-11T00:39:08;98822.06;;;-11.95;77.43
42771;BME280;28426;42.872;25.314;2023-02-11T00:41:39;98814.41;;;-12.15;78.83
42771;BME280;28426;42.872;25.314;2023-02-11T00:44:12;98819.53;;;-12.27;79.14
42771;BME280;28426;42.872;25.314;2023-02-11T00:46:42;98814.41;;;-12.38;79.08
42771;BME280;28426;42.872;25.314;2023-02-11T00:49:14;98813.53;;;-12.51;79.10
42771;BME280;28426;42.872;25.314;2023-02-11T00:51:47;98806.66;;;-12.63;79.28
42771;BME280;28426;42.872;25.314;2023-02-11T00:54:19;98811.81;;;-12.60;83.85
42771;BME280;28426;42.872;25.314;2023-02-11T00:56:50;98806.69;;;-12.54;82.58
42771;BME280;28426;42.872;25.314;2023-02-11T00:59:20;98810.09;;;-12.53;80.50
42771;BME280;28426;42.872;25.314;2023-02-11T01:01:51;98809.25;;;-12.58;80.31
42771;BME280;28426;42.872;25.314;2023-02-11T01:04:22;98804.09;;;-12.60;82.92
42771;BME280;28426;42.872;25.314;2023-02-11T01:06:55;98804.94;;;-12.45;84.62
42771;BME280;28426;42.872;25.314;2023-02-11T01:09:26;98808.38;;;-12.37;83.39
42771;BME280;28426;42.872;25.314;2023-02-11T01:11:56;98792.94;;;-12.25;81.69
42771;BME280;28426;42.872;25.314;2023-02-11T01:14:27;98791.25;;;-12.29;79.68
42771;BME280;28426;42.872;25.314;2023-02-11T01:16:57;98793.81;;;-12.46;78.38
42771;BME280;28426;42.872;25.314;2023-02-11T01:19:28;98795.53;;;-12.65;79.28
42771;BME280;28426;42.872;25.314;2023-02-11T01:22:01;98792.06;;;-12.77;79.99
42771;BME280;28426;42.872;25.314;2023-02-11T01:24:32;98794.63;;;-12.83;80.60
42771;BME280;28426;42.872;25.314;2023-02-11T01:27:02;98784.34;;;-12.89;80.78
42771;BME280;28426;42.872;25.314;2023-02-11T01:29:33;98771.47;;;-13.05;80.76
42771;BME280;28426;42.872;25.314;2023-02-11T01:32:04;98786.03;;;-12.93;80.87
42771;BME280;28426;42.872;25.314;2023-02-11T01:34:35;98788.63;;;-12.96;80.66
42771;BME280;28426;42.872;25.314;2023-02-11T01:37:08;98774.91;;;-13.03;80.85
42771;BME280;28426;42.872;25.314;2023-02-11T01:39:38;98780.06;;;-12.89;84.75
42771;BME280;28426;42.872;25.314;2023-02-11T01:42:14;98770.66;;;-12.79;82.91
42771;BME280;28426;42.872;25.314;2023-02-11T01:44:47;98766.34;;;-12.75;81.07
42771;BME280;28426;42.872;25.314;2023-02-11T01:47:19;98745.81;;;-12.89;80.17
42771;BME280;28426;42.872;25.314;2023-02-11T01:49:52;98772.38;;;-12.75;84.72
42771;BME280;28426;42.872;25.314;2023-02-11T01:52:34;98774.97;;;-12.61;83.94
42771;BME280;28426;42.872;25.314;2023-02-11T01:55:09;98768.06;;;-12.52;83.02
42771;BME280;28426;42.872;25.314;2023-02-11T01:57:54;98761.25;;;-12.39;79.86
42771;BME280;28426;42.872;25.314;2023-02-11T02:00:29;98770.66;;;-12.66;75.37
42771;BME280;28426;42.872;25.314;2023-02-11T02:03:06;98765.47;;;-13.01;79.86
42771;BME280;28426;42.872;25.314;2023-02-11T02:05:42;98767.19;;;-13.00;82.50
42771;BME280;28426;42.872;25.314;2023-02-11T02:08:22;98758.63;;;-12.98;82.21
42771;BME280;28426;42.872;25.314;2023-02-11T02:10:56;98762.94;;;-12.94;81.32
42771;BME280;28426;42.872;25.314;2023-02-11T02:13:29;98759.50;;;-12.95;80.90
42771;BME280;28426;42.872;25.314;2023-02-11T02:16:21;98759.47;;;-13.00;80.82
42771;BME280;28426;42.872;25.314;2023-02-11T02:19:12;98756.91;;;-13.07;80.13
42771;BME280;28426;42.872;25.314;2023-02-11T02:28:25;98759.44;;;-13.24;84.67
42771;BME280;28426;42.872;25.314;2023-02-11T02:33:59;98748.34;;;-13.09;81.90
42771;BME280;28426;42.872;25.314;2023-02-11T02:36:37;98751.75;;;-13.09;81.38
42771;BME280;28426;42.872;25.314;2023-02-11T02:39:14;98765.50;;;-12.85;84.94
42771;BME280;28426;42.872;25.314;2023-02-11T02:41:48;98756.94;;;-12.75;83.99
42771;BME280;28426;42.872;25.314;2023-02-11T02:44:19;98759.53;;;-12.62;80.75
42771;BME280;28426;42.872;25.314;2023-02-11T02:46:50;98755.22;;;-12.79;76.29
42771;BME280;28426;42.872;25.314;2023-02-11T02:49:23;98757.72;;;-13.21;73.74
42771;BME280;28426;42.872;25.314;2023-02-11T02:52:02;98755.09;;;-13.43;82.03
42771;BME280;28426;42.872;25.314;2023-02-11T02:55:11;98761.13;;;-13.39;83.10
42771;BME280;28426;42.872;25.314;2023-02-11T02:58:00;98751.72;;;-13.34;82.38
42771;BME280;28426;42.872;25.314;2023-02-11T03:00:39;98760.28;;;-13.29;82.00
42771;BME280;28426;42.872;25.314;2023-02-11T03:03:19;98756.84;;;-13.29;81.29
42771;BME280;28426;42.872;25.314;2023-02-11T03:05:57;98764.56;;;-13.32;80.89
42771;BME280;28426;42.872;25.314;2023-02-11T03:08:34;98756.81;;;-13.40;80.52
42771;BME280;28426;42.872;25.314;2023-02-11T03:11:08;98763.69;;;-13.48;80.23
42771;BME280;28426;42.872;25.314;2023-02-11T03:13:39;98757.66;;;-13.58;79.72
42771;BME280;28426;42.872;25.314;2023-02-11T03:16:14;98761.00;;;-13.73;79.03
42771;BME280;28426;42.872;25.314;2023-02-11T03:18:47;98765.31;;;-13.69;85.47
42771;BME280;28426;42.872;25.314;2023-02-11T03:21:21;98760.19;;;-13.60;85.02
42771;BME280;28426;42.872;25.314;2023-02-11T03:23:54;98766.25;;;-13.39;84.54
42771;BME280;28426;42.872;25.314;2023-02-11T03:26:29;98759.38;;;-13.37;79.97
42771;BME280;28426;42.872;25.314;2023-02-11T03:29:03;98758.56;;;-13.48;79.71
42771;BME280;28426;42.872;25.314;2023-02-11T03:31:42;98761.91;;;-13.59;79.51
42771;BME280;28426;42.872;25.314;2023-02-11T03:34:22;98755.00;;;-13.75;79.37
42771;BME280;28426;42.872;25.314;2023-02-11T03:37:00;98751.53;;;-13.87;79.42
42771;BME280;28426;42.872;25.314;2023-02-11T03:39:36;98758.38;;;-13.89;83.28
42771;BME280;28426;42.872;25.314;2023-02-11T03:42:07;98764.41;;;-13.76;83.70
42771;BME280;28426;42.872;25.314;2023-02-11T03:44:43;98761.00;;;-13.73;80.38
42771;BME280;28426;42.872;25.314;2023-02-11T03:47:17;98755.00;;;-13.75;80.81
42771;BME280;28426;42.872;25.314;2023-02-11T03:49:50;98761.84;;;-13.76;80.67
42771;BME280;28426;42.872;25.314;2023-02-11T03:52:25;98766.97;;;-13.77;80.48
42771;BME280;28426;42.872;25.314;2023-02-11T03:54:59;98764.38;;;-13.85;79.99
42771;BME280;28426;42.872;25.314;2023-02-11T03:57:31;98760.06;;;-13.91;80.39
42771;BME280;28426;42.872;25.314;2023-02-11T04:00:04;98757.47;;;-13.97;80.08
42771;BME280;28426;42.872;25.314;2023-02-11T04:02:39;98760.00;;;-14.02;80.51
42771;BME280;28426;42.872;25.314;2023-02-11T04:05:13;98763.41;;;-14.04;80.68
42771;BME280;28426;42.872;25.314;2023-02-11T04:07:46;98760.81;;;-14.11;80.83
42771;BME280;28426;42.872;25.314;2023-02-11T04:10:17;98754.81;;;-14.13;80.44
42771;BME280;28426;42.872;25.314;2023-02-11T04:12:48;98762.47;;;-14.17;80.74
42771;BME280;28426;42.872;25.314;2023-02-11T04:15:18;98766.75;;;-14.18;80.96
42771;BME280;28426;42.872;25.314;2023-02-11T04:17:49;98754.78;;;-14.17;81.31
42771;BME280;28426;42.872;25.314;2023-02-11T04:20:20;98753.91;;;-14.18;81.43
42771;BME280;28426;42.872;25.314;2023-02-11T04:22:53;98741.13;;;-14.15;81.62
42771;BME280;28426;42.872;25.314;2023-02-11T04:25:24;98757.38;;;-14.11;82.15
42771;BME280;28426;42.872;25.314;2023-02-11T04:27:55;98756.53;;;-14.09;82.17
42771;BME280;28426;42.872;25.314;2023-02-11T04:30:26;98752.28;;;-14.07;81.83
42771;BME280;28426;42.872;25.314;2023-02-11T04:32:57;98743.75;;;-14.06;81.71
42771;BME280;28426;42.872;25.314;2023-02-11T04:35:28;98748.00;;;-14.08;81.59
42771;BME280;28426;42.872;25.314;2023-02-11T04:38:01;98748.00;;;-14.08;81.48
42771;BME280;28426;42.872;25.314;2023-02-11T04:40:32;98742.84;;;-14.08;81.92
42771;BME280;28426;42.872;25.314;2023-02-11T04:43:02;98737.75;;;-14.04;82.30
42771;BME280;28426;42.872;25.314;2023-02-11T04:45:33;98738.63;;;-14.01;82.44
42771;BME280;28426;42.872;25.314;2023-02-11T04:48:04;98734.38;;;-13.97;82.34
42771;BME280;28426;42.872;25.314;2023-02-11T04:50:35;98731.81;;;-13.96;82.03
42771;BME280;28426;42.872;25.314;2023-02-11T04:53:08;98721.56;;;-13.96;81.85
42771;BME280;28426;42.872;25.314;2023-02-11T04:55:38;98724.97;;;-13.94;81.78
42771;BME280;28426;42.872;25.314;2023-02-11T04:58:09;98730.09;;;-13.95;81.81
42771;BME280;28426;42.872;25.314;2023-02-11T05:00:39;98719.81;;;-13.97;81.79
42771;BME280;28426;42.872;25.314;2023-02-11T05:03:10;98717.28;;;-13.98;81.63
42771;BME280;28426;42.872;25.314;2023-02-11T05:05:41;98720.66;;;-13.99;81.64
42771;BME280;28426;42.872;25.314;2023-02-11T05:08:15;98708.69;;;-14.00;81.52
42771;BME280;28426;42.872;25.314;2023-02-11T05:10:46;98705.28;;;-14.02;81.74
42771;BME280;28426;42.872;25.314;2023-02-11T05:13:16;98717.22;;;-14.04;81.74
42771;BME280;28426;42.872;25.314;2023-02-11T05:15:47;98703.53;;;-14.07;81.41
42771;BME280;28426;42.872;25.314;2023-02-11T05:18:18;98700.09;;;-14.09;81.63
42771;BME280;28426;42.872;25.314;2023-02-11T05:20:49;98704.41;;;-14.09;81.57
42771;BME280;28426;42.872;25.314;2023-02-11T05:23:22;98714.66;;;-14.09;81.52
42771;BME280;28426;42.872;25.314;2023-02-11T05:25:53;98709.50;;;-14.11;81.28
42771;BME280;28426;42.872;25.314;2023-02-11T05:28:23;98712.03;;;-14.14;81.19
42771;BME280;28426;42.872;25.314;2023-02-11T05:30:54;98716.31;;;-14.13;81.31
42771;BME280;28426;42.872;25.314;2023-02-11T05:33:25;98718.03;;;-14.15;81.30
42771;BME280;28426;42.872;25.314;2023-02-11T05:35:57;98716.31;;;-14.19;81.23
42771;BME280;28426;42.872;25.314;2023-02-11T05:38:31;98720.59;;;-14.15;81.20
42771;BME280;28426;42.872;25.314;2023-02-11T05:41:03;98717.16;;;-14.17;81.21
42771;BME280;28426;42.872;25.314;2023-02-11T05:43:34;98719.72;;;-14.17;81.36
42771;BME280;28426;42.872;25.314;2023-02-11T05:46:04;98725.69;;;-14.18;81.61
42771;BME280;28426;42.872;25.314;2023-02-11T05:48:35;98722.31;;;-14.14;81.38
42771;BME280;28426;42.872;25.314;2023-02-11T05:51:06;98716.34;;;-14.11;81.42
42771;BME280;28426;42.872;25.314;2023-02-11T05:53:39;98720.63;;;-14.07;81.75
42771;BME280;28426;42.872;25.314;2023-02-11T05:56:10;98719.78;;;-14.04;81.76
42771;BME280;28426;42.872;25.314;2023-02-11T05:58:41;98722.38;;;-14.01;81.82
42771;BME280;28426;42.872;25.314;2023-02-11T06:01:11;98713.81;;;-14.00;81.93
42771;BME280;28426;42.872;25.314;2023-02-11T06:03:42;98720.72;;;-13.93;81.93
42771;BME280;28426;42.872;25.314;2023-02-11T06:06:12;98718.25;;;-13.71;86.47
42771;BME280;28426;42.872;25.314;2023-02-11T06:08:46;98720.00;;;-13.51;85.72
42771;BME280;28426;42.872;25.314;2023-02-11T06:11:16;98712.34;;;-13.23;87.86
42771;BME280;28426;42.872;25.314;2023-02-11T06:13:47;98714.94;;;-13.05;81.80
42771;BME280;28426;42.872;25.314;2023-02-11T06:16:18;98708.91;;;-13.21;77.62
42771;BME280;28426;42.872;25.314;2023-02-11T06:18:48;98706.34;;;-13.35;81.06
42771;BME280;28426;42.872;25.314;2023-02-11T06:21:19;98705.50;;;-13.17;84.68
42771;BME280;28426;42.872;25.314;2023-02-11T06:24:09;98701.22;;;-12.90;83.86
42771;BME280;28426;42.872;25.314;2023-02-11T06:26:39;98709.81;;;-12.69;83.31
42771;BME280;28426;42.872;25.314;2023-02-11T06:29:10;98702.91;;;-12.48;82.25
42771;BME280;28426;42.872;25.314;2023-02-11T06:31:41;98699.47;;;-12.30;81.84
42771;BME280;28426;42.872;25.314;2023-02-11T06:34:12;98705.44;;;-12.15;81.06
42771;BME280;28426;42.872;25.314;2023-02-11T06:36:42;98702.81;;;-12.03;80.71
42771;BME280;28426;42.872;25.314;2023-02-11T06:39:15;98707.06;;;-11.94;80.02
42771;BME280;28426;42.872;25.314;2023-02-11T06:41:46;98711.34;;;-11.88;79.62
42771;BME280;28426;42.872;25.314;2023-02-11T06:44:17;98709.56;;;-11.66;82.86
42771;BME280;28426;42.872;25.314;2023-02-11T06:46:47;98696.47;;;-11.33;81.70
42771;BME280;28426;42.872;25.314;2023-02-11T06:49:18;98704.97;;;-11.12;79.00
42771;BME280;28426;42.872;25.314;2023-02-11T06:51:48;98713.44;;;-10.95;78.04
42771;BME280;28426;42.872;25.314;2023-02-11T06:54:22;98701.19;;;-10.68;79.97
42771;BME280;28426;42.872;25.314;2023-02-11T06:56:52;98707.81;;;-10.42;80.42
42771;BME280;28426;42.872;25.314;2023-02-11T06:59:23;98704.00;;;-10.06;77.50
42771;BME280;28426;42.872;25.314;2023-02-11T07:01:54;98698.63;;;-9.86;76.29
42771;BME280;28426;42.872;25.314;2023-02-11T07:04:24;98689.91;;;-9.77;75.61
42771;BME280;28426;42.872;25.314;2023-02-11T07:06:55;98698.47;;;-9.72;75.59
42771;BME280;28426;42.872;25.314;2023-02-11T07:09:28;98707.91;;;-9.69;75.47
42771;BME280;28426;42.872;25.314;2023-02-11T07:11:59;98712.03;;;-9.54;78.82
42771;BME280;28426;42.872;25.314;2023-02-11T07:14:29;98722.81;;;-9.23;77.87
42771;BME280;28426;42.872;25.314;2023-02-11T07:17:00;98717.28;;;-8.96;76.46
42771;BME280;28426;42.872;25.314;2023-02-11T07:19:31;98723.09;;;-8.82;74.14
42771;BME280;28426;42.872;25.314;2023-02-11T07:22:02;98712.56;;;-8.69;73.77
42771;BME280;28426;42.872;25.314;2023-02-11T07:24:35;98723.56;;;-8.56;73.30
42771;BME280;28426;42.872;25.314;2023-02-11T07:27:05;98716.47;;;-8.46;73.29
42771;BME280;28426;42.872;25.314;2023-02-11T07:29:36;98718.47;;;-8.12;75.04
42771;BME280;28426;42.872;25.314;2023-02-11T07:32:07;98715.03;;;-7.68;73.72
42771;BME280;28426;42.872;25.314;2023-02-11T07:34:37;98710.94;;;-7.36;72.17
42771;BME280;28426;42.872;25.314;2023-02-11T07:37:08;98716.63;;;-7.20;70.65
42771;BME280;28426;42.872;25.314;2023-02-11T07:39:41;98720.16;;;-6.83;73.01
42771;BME280;28426;42.872;25.314;2023-02-11T07:42:12;98717.25;;;-6.34;74.37
42771;BME280;28426;42.872;25.314;2023-02-11T07:44:43;98722.03;;;-5.85;69.37
42771;BME280;28426;42.872;25.314;2023-02-11T07:47:16;98720.56;;;-5.62;68.57
42771;BME280;28426;42.872;25.314;2023-02-11T07:49:47;98721.09;;;-5.51;69.87
42771;BME280;28426;42.872;25.314;2023-02-11T07:52:21;98720.91;;;-5.15;69.74
42771;BME280;28426;42.872;25.314;2023-02-11T07:54:55;98721.75;;;-4.84;67.69
42771;BME280;28426;42.872;25.314;2023-02-11T07:57:26;98710.53;;;-4.59;66.87
42771;BME280;28426;42.872;25.314;2023-02-11T07:59:56;98708.47;;;-4.49;65.70
42771;BME280;28426;42.872;25.314;2023-02-11T08:02:36;98710.69;;;-4.37;65.77
42771;BME280;28426;42.872;25.314;2023-02-11T08:05:07;98718.72;;;-4.44;65.13
42771;BME280;28426;42.872;25.314;2023-02-11T08:07:38;98713.78;;;-4.52;65.08
42771;BME280;28426;42.872;25.314;2023-02-11T08:10:11;98721.50;;;-4.49;65.22
42771;BME280;28426;42.872;25.314;2023-02-11T08:12:42;98715.13;;;-4.40;66.24
42771;BME280;28426;42.872;25.314;2023-02-11T08:15:12;98708.69;;;-4.03;68.01
42771;BME280;28426;42.872;25.314;2023-02-11T08:17:43;98704.91;;;-3.70;65.09
42771;BME280;28426;42.872;25.314;2023-02-11T08:20:14;98699.31;;;-3.59;63.62
42771;BME280;28426;42.872;25.314;2023-02-11T08:22:45;98696.88;;;-3.64;64.07
42771;BME280;28426;42.872;25.314;2023-02-11T08:25:18;98699.53;;;-3.42;66.14
42771;BME280;28426;42.872;25.314;2023-02-11T08:27:49;98694.03;;;-3.10;66.90
42771;BME280;28426;42.872;25.314;2023-02-11T08:30:19;98682.53;;;-2.83;63.99
42771;BME280;28426;42.872;25.314;2023-02-11T08:32:53;98681.72;;;-2.84;63.04
42771;BME280;28426;42.872;25.314;2023-02-11T08:35:24;98679.56;;;-2.96;62.18
42771;BME280;28426;42.872;25.314;2023-02-11T08:37:55;98681.06;;;-3.13;61.70
42771;BME280;28426;42.872;25.314;2023-02-11T08:40:28;98676.31;;;-3.25;62.84
42771;BME280;28426;42.872;25.314;2023-02-11T08:42:59;98681.25;;;-3.18;65.24
42771;BME280;28426;42.872;25.314;2023-02-11T08:45:33;98671.47;;;-2.90;66.23
42771;BME280;28426;42.872;25.314;2023-02-11T08:48:03;98676.66;;;-2.66;64.36
42771;BME280;28426;42.872;25.314;2023-02-11T08:50:34;98674.81;;;-2.64;63.93
42771;BME280;28426;42.872;25.314;2023-02-11T08:53:05;98666.31;;;-2.69;64.84
42771;BME280;28426;42.872;25.314;2023-02-11T08:55:38;98662.78;;;-2.68;64.78
42771;BME280;28426;42.872;25.314;2023-02-11T08:58:09;98662.66;;;-2.44;64.51
42771;BME280;28426;42.872;25.314;2023-02-11T09:00:39;98657.47;;;-2.24;63.19
42771;BME280;28426;42.872;25.314;2023-02-11T09:03:12;98651.06;;;-2.16;60.88
42771;BME280;28426;42.872;25.314;2023-02-11T09:05:43;98646.47;;;-2.11;62.31
42771;BME280;28426;42.872;25.314;2023-02-11T09:08:14;98644.28;;;-2.01;63.72
42771;BME280;28426;42.872;25.314;2023-02-11T09:10:48;98643.41;;;-1.81;64.27
42771;BME280;28426;42.872;25.314;2023-02-11T09:13:19;98631.16;;;-1.60;58.89
42771;BME280;28426;42.872;25.314;2023-02-11T09:15:49;98625.81;;;-1.58;57.13
42771;BME280;28426;42.872;25.314;2023-02-11T09:18:20;98625.47;;;-1.69;55.80
42771;BME280;28426;42.872;25.314;2023-02-11T09:20:51;98627.56;;;-1.78;56.08
42771;BME280;28426;42.872;25.314;2023-02-11T09:23:21;98626.47;;;-1.72;57.38
42771;BME280;28426;42.872;25.314;2023-02-11T09:25:54;98619.38;;;-1.51;58.68
42771;BME280;28426;42.872;25.314;2023-02-11T09:28:25;98606.84;;;-1.44;56.52
42771;BME280;28426;42.872;25.314;2023-02-11T09:30:56;98602.09;;;-1.74;55.69
42771;BME280;28426;42.872;25.314;2023-02-11T09:33:26;98609.84;;;-2.11;57.05
42771;BME280;28426;42.872;25.314;2023-02-11T09:35:59;98603.09;;;-2.57;56.25
42771;BME280;28426;42.872;25.314;2023-02-11T09:38:30;98598.06;;;-3.05;55.10
42771;BME280;28426;42.872;25.314;2023-02-11T09:41:03;98589.81;;;-3.38;57.28
42771;BME280;28426;42.872;25.314;2023-02-11T09:43:36;98587.06;;;-3.58;57.60
42771;BME280;28426;42.872;25.314;2023-02-11T09:46:14;98581.97;;;-3.61;58.59
42771;BME280;28426;42.872;25.314;2023-02-11T09:48:48;98581.06;;;-3.15;60.35
42771;BME280;28426;42.872;25.314;2023-02-11T09:51:28;98572.69;;;-2.59;59.75
42771;BME280;28426;42.872;25.314;2023-02-11T09:54:06;98572.78;;;-2.21;55.42
42771;BME280;28426;42.872;25.314;2023-02-11T09:56:43;98566.00;;;-2.46;55.13
42771;BME280;28426;42.872;25.314;2023-02-11T09:59:15;98557.22;;;-2.64;55.95
42771;BME280;28426;42.872;25.314;2023-02-11T10:01:49;98549.13;;;-2.79;56.45
42771;BME280;28426;42.872;25.314;2023-02-11T10:04:32;98542.00;;;-2.75;55.37
42771;BME280;28426;42.872;25.314;2023-02-11T10:07:17;98537.34;;;-2.68;56.20
42771;BME280;28426;42.872;25.314;2023-02-11T10:09:58;98540.66;;;-2.65;55.08
42771;BME280;28426;42.872;25.314;2023-02-11T10:12:46;98536.38;;;-2.66;55.72
42771;BME280;28426;42.872;25.314;2023-02-11T10:15:24;98533.47;;;-2.59;56.05
42771;BME280;28426;42.872;25.314;2023-02-11T10:18:12;98534.56;;;-2.44;54.66
42771;BME280;28426;42.872;25.314;2023-02-11T10:20:52;98529.53;;;-2.09;55.77
42771;BME280;28426;42.872;25.314;2023-02-11T10:23:32;98525.00;;;-1.67;55.46
42771;BME280;28426;42.872;25.314;2023-02-11T10:26:10;98516.78;;;-1.22;54.38
42771;BME280;28426;42.872;25.314;2023-02-11T10:28:46;98511.31;;;-0.82;55.05
42771;BME280;28426;42.872;25.314;2023-02-11T10:31:24;98509.44;;;-0.45;53.84
42771;BME280;28426;42.872;25.314;2023-02-11T10:34:00;98504.06;;;-0.09;53.03
42771;BME280;28426;42.872;25.314;2023-02-11T10:36:35;98496.97;;;0.25;53.31
42771;BME280;28426;42.872;25.314;2023-02-11T10:39:16;98475.94;;;0.57;53.35
42771;BME280;28426;42.872;25.314;2023-02-11T10:41:50;98478.84;;;0.83;51.92
42771;BME280;28426;42.872;25.314;2023-02-11T10:44:28;98487.81;;;1.10;50.11
42771;BME280;28426;42.872;25.314;2023-02-11T10:47:03;98481.22;;;1.33;50.11
42771;BME280;28426;42.872;25.314;2023-02-11T10:49:38;98472.03;;;1.55;49.51
42771;BME280;28426;42.872;25.314;2023-02-11T10:52:16;98462.91;;;1.75;49.39
42771;BME280;28426;42.872;25.314;2023-02-11T10:54:58;98448.50;;;1.95;48.46
42771;BME280;28426;42.872;25.314;2023-02-11T10:57:35;98449.94;;;2.14;49.23
42771;BME280;28426;42.872;25.314;2023-02-11T11:00:33;98448.75;;;2.33;47.73
42771;BME280;28426;42.872;25.314;2023-02-11T11:03:20;98442.59;;;2.47;46.65
42771;BME280;28426;42.872;25.314;2023-02-11T11:05:54;98444.25;;;2.35;44.24
42771;BME280;28426;42.872;25.314;2023-02-11T11:08:37;98430.28;;;1.78;44.45
42771;BME280;28426;42.872;25.314;2023-02-11T11:11:10;98439.38;;;1.14;44.51
42771;BME280;28426;42.872;25.314;2023-02-11T11:13:52;98426.22;;;0.85;47.23
42771;BME280;28426;42.872;25.314;2023-02-11T11:16:28;98428.38;;;0.93;47.08
42771;BME280;28426;42.872;25.314;2023-02-11T11:19:15;98422.56;;;1.02;45.02
42771;BME280;28426;42.872;25.314;2023-02-11T11:21:50;98413.25;;;0.51;44.82
42771;BME280;28426;42.872;25.314;2023-02-11T11:24:24;98415.53;;;0.10;45.90
42771;BME280;28426;42.872;25.314;2023-02-11T11:26:58;98403.69;;;-0.29;47.09
42771;BME280;28426;42.872;25.314;2023-02-11T11:29:32;98405.03;;;-0.54;47.42
42771;BME280;28426;42.872;25.314;2023-02-11T11:32:11;98400.75;;;-0.73;47.80
42771;BME280;28426;42.872;25.314;2023-02-11T11:34:48;98399.56;;;-0.83;46.62
42771;BME280;28426;42.872;25.314;2023-02-11T11:37:23;98401.97;;;-0.62;48.28
42771;BME280;28426;42.872;25.314;2023-02-11T11:39:57;98397.50;;;-0.28;49.06
42771;BME280;28426;42.872;25.314;2023-02-11T11:42:31;98400.53;;;0.12;50.09
42771;BME280;28426;42.872;25.314;2023-02-11T11:45:19;98392.66;;;0.59;48.18
42771;BME280;28426;42.872;25.314;2023-02-11T11:47:57;98386.63;;;1.02;47.75
42771;BME280;28426;42.872;25.314;2023-02-11T11:50:34;98389.44;;;1.43;47.24
42771;BME280;28426;42.872;25.314;2023-02-11T11:53:10;98381.00;;;1.80;46.35
42771;BME280;28426;42.872;25.314;2023-02-11T11:55:44;98379.78;;;2.13;47.18
42771;BME280;28426;42.872;25.314;2023-02-11T11:58:19;98382.28;;;2.42;46.52
42771;BME280;28426;42.872;25.314;2023-02-11T12:00:55;98378.03;;;2.67;42.21
42771;BME280;28426;42.872;25.314;2023-02-11T12:06:40;98373.00;;;3.16;45.71
42771;BME280;28426;42.872;25.314;2023-02-11T12:09:22;98358.28;;;3.38;46.21
42771;BME280;28426;42.872;25.314;2023-02-11T12:12:07;98366.25;;;3.62;44.82
42771;BME280;28426;42.872;25.314;2023-02-11T12:14:48;98363.16;;;3.82;44.02
42771;BME280;28426;42.872;25.314;2023-02-11T12:17:38;98362.78;;;3.99;44.51
42771;BME280;28426;42.872;25.314;2023-02-11T12:20:26;98359.97;;;4.14;45.76
42771;BME280;28426;42.872;25.314;2023-02-11T12:23:19;98357.13;;;4.28;43.18
42771;BME280;28426;42.872;25.314;2023-02-11T12:25:55;98351.03;;;4.39;44.49
42771;BME280;28426;42.872;25.314;2023-02-11T12:28:35;98350.44;;;4.36;40.43
42771;BME280;28426;42.872;25.314;2023-02-11T12:31:16;98345.56;;;4.18;42.52
42771;BME280;28426;42.872;25.314;2023-02-11T12:34:03;98339.47;;;3.93;40.48
42771;BME280;28426;42.872;25.314;2023-02-11T12:36:49;98342.34;;;3.52;40.13
42771;BME280;28426;42.872;25.314;2023-02-11T12:39:37;98343.66;;;3.08;39.63
42771;BME280;28426;42.872;25.314;2023-02-11T12:42:29;98335.75;;;2.95;41.95
42771;BME280;28426;42.872;25.314;2023-02-11T12:45:23;98331.44;;;2.81;40.43
42771;BME280;28426;42.872;25.314;2023-02-11T12:48:16;98325.53;;;2.51;41.31
42771;BME280;28426;42.872;25.314;2023-02-11T12:50:56;98325.13;;;2.17;41.61
42771;BME280;28426;42.872;25.314;2023-02-11T12:53:55;98318.41;;;1.85;41.22
42771;BME280;28426;42.872;25.314;2023-02-11T12:56:36;98319.34;;;1.56;41.40
42771;BME280;28426;42.872;25.314;2023-02-11T12:59:14;98323.00;;;1.54;43.17
42771;BME280;28426;42.872;25.314;2023-02-11T13:01:48;98312.03;;;1.47;42.28
42771;BME280;28426;42.872;25.314;2023-02-11T13:04:24;98317.59;;;1.28;43.63
42771;BME280;28426;42.872;25.314;2023-02-11T13:07:00;98305.50;;;1.11;43.96
42771;BME280;28426;42.872;25.314;2023-02-11T13:09:41;98307.47;;;0.93;43.54
42771;BME280;28426;42.872;25.314;2023-02-11T13:12:13;98309.44;;;0.74;43.93
42771;BME280;28426;42.872;25.314;2023-02-11T13:15:01;98303.81;;;0.81;44.88
42771;BME280;28426;42.872;25.314;2023-02-11T13:17:39;98297.34;;;0.86;42.89
42771;BME280;28426;42.872;25.314;2023-02-11T13:20:20;98294.13;;;0.81;43.15
42771;BME280;28426;42.872;25.314;2023-02-11T13:22:57;98292.25;;;0.54;44.90
42771;BME280;28426;42.872;25.314;2023-02-11T13:25:36;98289.34;;;0.59;44.30
42771;BME280;28426;42.872;25.314;2023-02-11T13:28:28;98294.81;;;0.70;44.33
42771;BME280;28426;42.872;25.314;2023-02-11T13:31:03;98294.31;;;0.49;44.28
42771;BME280;28426;42.872;25.314;2023-02-11T13:33:36;98291.16;;;-0.18;45.50
42771;BME280;28426;42.872;25.314;2023-02-11T13:36:12;98295.38;;;-0.80;47.42
42771;BME280;28426;42.872;25.314;2023-02-11T13:38:52;98283.31;;;-1.32;48.60